Terminal Aerodrome Forecast
Issued by NWS

Home | Current Version | Previous Version | Text Only | Print | Product List | Glossary On
Versions: 1 2 3 4 5 6 7 8 9 10 11 12 13 14
000
FTUS45 KRIW 011100
TAFLND
TAF
KLND 011126Z 0112/0212 30006KT P6SM OVC010
     FM011530 VRB04KT P6SM SCT010 OVC018
     FM011700 VRB04KT P6SM SCT020
     FM012200 VRB04KT P6SM SCT100 BKN250
     FM020300 25008KT P6SM BKN060=

USA.gov is the U.S. government's official web portal to all federal, state and local government web resources and services.